createdAt,value
2018-02-03T00:00:35.305Z,14.38
2018-02-03T00:01:37.789Z,13.95
2018-02-03T00:02:40.273Z,14.43
2018-02-03T00:03:42.840Z,15.40
2018-02-03T00:04:46.065Z,14.27
2018-02-03T00:05:48.565Z,14.55
2018-02-03T00:06:51.042Z,15.13
2018-02-03T00:07:53.525Z,15.35
2018-02-03T00:08:55.985Z,14.32
2018-02-03T00:09:58.455Z,15.10
2018-02-03T00:11:00.914Z,14.75
2018-02-03T00:12:03.410Z,15.32
2018-02-03T00:13:06.625Z,15.18
2018-02-03T00:14:09.922Z,14.32
2018-02-03T00:15:12.390Z,15.23
2018-02-03T00:16:14.849Z,15.40
2018-02-03T00:17:17.341Z,15.32
2018-02-03T00:18:20.586Z,14.95
2018-02-03T00:19:23.849Z,15.15
2018-02-03T00:20:26.312Z,15.00
2018-02-03T00:21:29.945Z,16.08
2018-02-03T00:22:32.444Z,14.60
2018-02-03T00:23:35.693Z,16.33
2018-02-03T00:24:38.949Z,15.55
2018-02-03T00:25:41.425Z,16.10
2018-02-03T00:26:43.883Z,16.27
2018-02-03T00:27:47.134Z,15.75
2018-02-03T00:28:49.705Z,16.08
2018-02-03T00:29:52.190Z,15.48
2018-02-03T00:30:54.677Z,15.73
2018-02-03T00:31:57.145Z,14.32
2018-02-03T00:32:59.613Z,15.20
2018-02-03T00:34:02.131Z,15.13
2018-02-03T00:35:05.389Z,15.10
2018-02-03T00:36:07.854Z,14.93
2018-02-03T00:37:10.334Z,14.93
2018-02-03T00:38:12.810Z,15.18
2018-02-03T00:39:15.319Z,13.57
2018-02-03T00:40:18.548Z,14.68
2018-02-03T00:41:21.765Z,15.05
2018-02-03T00:42:24.245Z,13.93
2018-02-03T00:43:26.718Z,14.30
2018-02-03T00:44:29.188Z,14.13
2018-02-03T00:45:31.660Z,15.13
2018-02-03T00:46:34.124Z,15.30
2018-02-03T00:47:37.336Z,15.15
2018-02-03T00:48:39.825Z,14.77
2018-02-03T00:49:42.293Z,14.48
2018-02-03T00:50:45.530Z,14.70
2018-02-03T00:51:48.090Z,14.18
2018-02-03T00:52:51.327Z,13.62
2018-02-03T00:53:54.557Z,14.23
2018-02-03T00:54:57.788Z,13.88
2018-02-03T00:56:00.248Z,14.73
2018-02-03T00:57:02.749Z,14.77
2018-02-03T00:58:05.986Z,14.98
2018-02-03T00:59:08.436Z,14.38
2018-02-03T01:00:10.901Z,14.90
2018-02-03T01:01:13.362Z,14.68
2018-02-03T01:02:16.675Z,14.07
2018-02-03T01:04:45.400Z,14.45
2018-02-03T01:05:48.618Z,14.98
2018-02-03T01:06:51.181Z,15.45
2018-02-03T01:07:53.645Z,14.40
2018-02-03T01:08:56.109Z,15.45
2018-02-03T01:09:59.361Z,16.48
2018-02-03T01:11:02.594Z,16.08
2018-02-03T01:12:05.057Z,16.58
2018-02-03T01:13:07.521Z,15.30
2018-02-03T01:14:09.990Z,16.55
2018-02-03T01:15:13.238Z,16.42
2018-02-03T01:16:16.453Z,16.25
2018-02-03T01:17:19.673Z,16.08
2018-02-03T01:18:22.145Z,15.88
2018-02-03T01:19:24.598Z,16.75
2018-02-03T01:20:27.205Z,17.02
2018-02-03T01:21:29.672Z,16.73
2018-02-03T01:22:32.129Z,15.73
2018-02-03T01:23:35.422Z,16.73
2018-02-03T01:24:37.890Z,17.02
2018-02-03T01:25:40.343Z,16.37
2018-02-03T01:26:42.826Z,16.33
2018-02-03T01:27:45.294Z,17.73
2018-02-03T01:28:47.784Z,16.33
2018-02-03T01:29:50.253Z,16.87
2018-02-03T01:30:52.735Z,17.17
2018-02-03T01:31:55.214Z,18.25
2018-02-03T01:32:57.669Z,15.95
2018-02-03T01:34:00.702Z,17.45
2018-02-03T01:35:03.933Z,17.15
2018-02-03T01:36:06.455Z,16.65
2018-02-03T01:37:08.949Z,18.10
2018-02-03T01:38:11.465Z,17.80
2018-02-03T01:39:13.936Z,16.75
2018-02-03T01:40:16.416Z,18.17
2018-02-03T01:41:18.955Z,17.33
2018-02-03T01:42:21.413Z,17.20
2018-02-03T01:43:23.888Z,17.92
2018-02-03T01:44:27.120Z,17.40
2018-02-03T01:45:30.367Z,17.02
2018-02-03T01:46:33.717Z,17.27
2018-02-03T01:47:48.141Z,17.87
2018-02-03T01:48:50.678Z,16.20
2018-02-03T01:49:53.151Z,17.45
2018-02-03T01:50:56.425Z,17.15
2018-02-03T01:51:58.936Z,17.33
2018-02-03T01:53:02.567Z,16.77
2018-02-03T01:54:05.807Z,17.58
2018-02-03T01:55:08.273Z,17.98
2018-02-03T01:56:10.753Z,17.60
2018-02-03T01:57:13.221Z,16.70
2018-02-03T01:58:15.697Z,17.85
2018-02-03T01:59:18.177Z,17.73
2018-02-03T02:00:20.709Z,17.02
2018-02-03T02:01:23.181Z,17.75
2018-02-03T02:02:26.417Z,17.80
2018-02-03T02:03:29.166Z,16.98
2018-02-03T02:04:32.395Z,17.52
2018-02-03T02:05:35.637Z,17.52
2018-02-03T02:06:38.117Z,16.77
2018-02-03T02:07:40.601Z,18.62
2018-02-03T02:08:43.842Z,17.65
2018-02-03T02:09:47.053Z,17.80
2018-02-03T02:10:51.042Z,18.10
2018-02-03T02:11:54.265Z,17.25
2018-02-03T02:12:56.781Z,17.42
2018-02-03T02:13:59.249Z,17.48
2018-02-03T02:15:02.471Z,17.15
2018-02-03T02:16:05.713Z,17.95
2018-02-03T02:17:08.173Z,18.20
2018-02-03T02:18:10.672Z,18.25
2018-02-03T02:19:13.893Z,17.70
2018-02-03T02:20:16.352Z,18.85
2018-02-03T02:21:19.564Z,17.37
2018-02-03T02:22:22.795Z,16.95
2018-02-03T02:23:25.366Z,17.48
2018-02-03T02:24:28.298Z,17.95
2018-02-03T02:25:30.811Z,17.62
2018-02-03T02:26:34.069Z,17.48
2018-02-03T02:27:36.527Z,17.83
2018-02-03T02:28:39.013Z,18.45
2018-02-03T02:29:41.485Z,18.10
2018-02-03T02:30:43.941Z,18.67
2018-02-03T02:31:47.174Z,17.40
2018-02-03T02:32:49.626Z,17.80
2018-02-03T02:33:52.178Z,18.87
2018-02-03T02:34:54.682Z,17.65
2018-02-03T02:35:57.175Z,17.80
2018-02-03T02:36:59.639Z,18.45
2018-02-03T02:38:02.106Z,18.58
2018-02-03T02:39:04.569Z,18.75
2018-02-03T02:40:07.797Z,18.20
2018-02-03T02:41:11.055Z,17.98
2018-02-03T02:42:14.285Z,18.10
2018-02-03T02:43:17.544Z,18.90
2018-02-03T02:44:20.784Z,17.90
2018-02-03T02:45:24.030Z,18.50
2018-02-03T02:46:26.993Z,18.40
2018-02-03T02:47:29.447Z,19.02
2018-02-03T02:48:32.021Z,17.70
2018-02-03T02:49:34.477Z,19.52
2018-02-03T02:50:36.936Z,19.15
2018-02-03T02:51:39.417Z,17.10
2018-02-03T02:52:41.907Z,19.60
2018-02-03T02:53:45.164Z,18.52
2018-02-03T02:54:47.621Z,17.35
2018-02-03T02:55:50.085Z,18.77
2018-02-03T02:56:53.342Z,18.15
2018-02-03T02:57:56.601Z,17.40
2018-02-03T02:58:59.126Z,18.00
2018-02-03T03:00:02.376Z,18.15
2018-02-03T03:01:04.897Z,18.83
2018-02-03T03:02:07.367Z,18.12
2018-02-03T03:03:09.850Z,18.33
2018-02-03T03:04:12.361Z,18.67
2018-02-03T03:05:14.821Z,17.77
2018-02-03T03:06:17.310Z,18.75
2018-02-03T03:07:20.559Z,18.17
2018-02-03T03:08:23.803Z,16.80
2018-02-03T03:09:26.274Z,18.83
2018-02-03T03:10:30.378Z,17.77
2018-02-03T03:11:34.169Z,19.27
2018-02-03T03:12:36.648Z,17.58
2018-02-03T03:13:39.909Z,17.75
2018-02-03T03:14:42.375Z,18.80
2018-02-03T03:15:44.885Z,19.25
2018-02-03T03:16:47.388Z,17.65
2018-02-03T03:17:49.833Z,18.20
2018-02-03T03:18:52.332Z,19.37
2018-02-03T03:19:54.857Z,17.60
2018-02-03T03:20:57.329Z,18.40
2018-02-03T03:22:00.575Z,17.80
2018-02-03T03:23:03.029Z,18.12
2018-02-03T03:24:06.270Z,19.42
2018-02-03T03:25:09.510Z,17.65
2018-02-03T03:26:12.766Z,18.42
2018-02-03T03:27:16.017Z,18.30
2018-02-03T03:28:18.474Z,18.77
2018-02-03T03:29:20.938Z,18.30
2018-02-03T03:30:24.210Z,18.80
2018-02-03T03:31:27.434Z,19.05
2018-02-03T03:32:30.791Z,17.15
2018-02-03T03:33:34.023Z,18.33
2018-02-03T03:34:37.327Z,18.30
2018-02-03T03:35:39.794Z,17.70
2018-02-03T03:36:43.068Z,18.55
2018-02-03T03:37:45.582Z,17.90
2018-02-03T03:38:48.103Z,16.60
2018-02-03T03:39:50.572Z,17.77
2018-02-03T03:40:53.033Z,17.92
2018-02-03T03:41:56.297Z,18.00
2018-02-03T03:42:58.830Z,18.37
2018-02-03T03:44:01.339Z,17.70
2018-02-03T03:45:04.622Z,18.92
2018-02-03T03:46:07.090Z,19.20
2018-02-03T03:47:10.327Z,19.12
2018-02-03T03:48:13.338Z,17.70
2018-02-03T03:49:15.918Z,18.17
2018-02-03T03:50:18.866Z,19.05
2018-02-03T03:51:21.346Z,18.42
2018-02-03T03:52:23.812Z,19.50
2018-02-03T03:53:26.327Z,18.67
2018-02-03T03:54:29.570Z,17.42
2018-02-03T03:55:32.065Z,18.70
2018-02-03T03:56:34.515Z,19.55
2018-02-03T03:57:37.736Z,18.65
2018-02-03T03:58:40.962Z,19.17
2018-02-03T03:59:43.425Z,19.37
2018-02-03T04:00:46.681Z,19.10
2018-02-03T04:01:49.142Z,18.00
2018-02-03T04:02:51.615Z,19.90
2018-02-03T04:03:54.839Z,18.65
2018-02-03T04:04:58.116Z,17.40
2018-02-03T04:06:00.617Z,18.83
2018-02-03T04:07:03.851Z,18.50
2018-02-03T04:08:07.073Z,20.30
2018-02-03T04:09:11.056Z,18.20
2018-02-03T04:10:14.315Z,18.62
2018-02-03T04:11:17.538Z,18.85
2018-02-03T04:12:20.771Z,18.12
2018-02-03T04:13:23.248Z,17.20
2018-02-03T04:14:25.732Z,18.33
2018-02-03T04:15:28.957Z,18.52
2018-02-03T04:16:31.412Z,18.52
2018-02-03T04:17:33.865Z,18.15
2018-02-03T04:18:36.337Z,18.40
2018-02-03T04:19:39.605Z,18.40
2018-02-03T04:20:42.833Z,17.90
2018-02-03T04:21:46.064Z,19.17
2018-02-03T04:22:48.532Z,20.27
2018-02-03T04:23:51.002Z,18.33
2018-02-03T04:24:53.474Z,19.67
2018-02-03T04:25:55.955Z,18.92
2018-02-03T04:26:58.405Z,18.65
2018-02-03T04:28:01.653Z,18.98
2018-02-03T04:29:04.885Z,18.33
2018-02-03T04:30:08.139Z,19.60
2018-02-03T04:31:11.370Z,19.77
2018-02-03T04:32:14.597Z,18.67
2018-02-03T04:33:17.078Z,20.42
2018-02-03T04:34:19.571Z,17.70
2018-02-03T04:35:22.047Z,17.98
2018-02-03T04:36:24.505Z,18.85
2018-02-03T04:37:26.964Z,19.55
2018-02-03T04:38:29.456Z,19.50
2018-02-03T04:39:32.679Z,18.20
2018-02-03T04:40:35.165Z,18.25
2018-02-03T04:41:37.667Z,19.17
2018-02-03T04:42:40.126Z,19.30
2018-02-03T04:43:42.621Z,18.90
2018-02-03T04:44:45.105Z,20.10
2018-02-03T04:45:47.552Z,19.00
2018-02-03T04:46:50.879Z,19.85
2018-02-03T04:47:53.370Z,19.50
2018-02-03T04:48:55.870Z,18.83
2018-02-03T04:49:58.385Z,19.08
2018-02-03T04:51:00.880Z,18.80
2018-02-03T04:52:03.390Z,19.50
2018-02-03T04:53:05.869Z,18.60
2018-02-03T04:54:08.337Z,20.02
2018-02-03T04:55:10.801Z,19.05
2018-02-03T04:56:14.033Z,18.92
2018-02-03T04:57:17.297Z,18.65
2018-02-03T04:58:19.756Z,19.55
2018-02-03T04:59:22.241Z,18.27
2018-02-03T05:00:24.703Z,16.67
2018-02-03T05:01:27.166Z,16.45
2018-02-03T05:02:29.766Z,15.57
2018-02-03T05:03:32.229Z,14.43
2018-02-03T05:04:35.463Z,15.23
2018-02-03T05:05:38.716Z,15.82
2018-02-03T05:06:41.969Z,15.57
2018-02-03T05:07:45.200Z,15.10
2018-02-03T05:08:48.412Z,15.30
2018-02-03T05:09:50.876Z,15.40
2018-02-03T05:10:54.113Z,15.77
2018-02-03T05:11:57.341Z,16.45
2018-02-03T05:13:00.568Z,15.52
2018-02-03T05:14:03.055Z,15.75
2018-02-03T05:15:05.557Z,16.40
2018-02-03T05:16:08.041Z,16.77
2018-02-03T05:17:12.013Z,18.20
2018-02-03T05:18:15.327Z,17.27
2018-02-03T05:19:17.777Z,16.98
2018-02-03T05:20:20.257Z,16.87
2018-02-03T05:21:22.709Z,18.45
2018-02-03T05:22:25.173Z,16.70
2018-02-03T05:23:28.430Z,16.85
2018-02-03T05:24:30.903Z,15.75
2018-02-03T05:25:33.384Z,16.52
2018-02-03T05:26:35.950Z,17.75
2018-02-03T05:27:38.438Z,16.50
2018-02-03T05:28:41.623Z,17.48
2018-02-03T05:29:44.109Z,16.42
2018-02-03T05:30:46.583Z,17.73
2018-02-03T05:31:49.042Z,17.98
2018-02-03T05:32:51.505Z,17.42
2018-02-03T05:33:53.971Z,17.50
2018-02-03T05:34:56.441Z,17.00
2018-02-03T05:35:58.905Z,18.17
2018-02-03T05:37:01.467Z,16.92
2018-02-03T05:38:04.688Z,16.80
2018-02-03T05:39:07.920Z,16.90
2018-02-03T05:40:10.373Z,17.33
2018-02-03T05:41:12.837Z,17.05
2018-02-03T05:42:15.325Z,17.10
2018-02-03T05:43:17.796Z,14.70
2018-02-03T05:44:23.677Z,15.90
2018-02-03T05:45:28.938Z,15.63
2018-02-03T05:46:31.420Z,16.20
2018-02-03T05:47:33.889Z,14.70
2018-02-03T05:48:36.380Z,15.52
2018-02-03T05:49:39.615Z,14.75
2018-02-03T05:50:42.847Z,14.63
2018-02-03T05:51:45.301Z,14.90
2018-02-03T05:52:48.567Z,15.20
2018-02-03T05:53:51.024Z,14.18
2018-02-03T05:54:53.495Z,13.38
2018-02-03T05:55:56.714Z,15.43
2018-02-03T05:56:59.182Z,14.05
2018-02-03T05:58:02.471Z,14.50
2018-02-03T05:59:04.947Z,13.60
2018-02-03T06:00:07.643Z,14.77
2018-02-03T06:01:10.869Z,14.07
2018-02-03T06:02:13.325Z,13.75
2018-02-03T06:03:16.596Z,14.35
2018-02-03T06:04:19.061Z,12.90
2018-02-03T06:05:21.585Z,14.63
2018-02-03T06:06:24.039Z,14.05
2018-02-03T06:07:26.537Z,14.43
2018-02-03T06:08:29.121Z,13.62
2018-02-03T06:09:31.610Z,13.45
2018-02-03T06:10:35.593Z,12.68
2018-02-03T06:11:38.817Z,13.73
2018-02-03T06:12:42.065Z,13.35
2018-02-03T06:13:45.289Z,12.80
2018-02-03T06:14:47.789Z,13.62
2018-02-03T06:15:50.274Z,13.02
2018-02-03T06:16:53.556Z,13.20
2018-02-03T06:17:57.484Z,13.23
2018-02-03T06:19:00.004Z,13.73
2018-02-03T06:20:03.257Z,13.77
2018-02-03T06:21:05.758Z,13.68
2018-02-03T06:22:08.994Z,13.25
2018-02-03T06:23:12.220Z,13.93
2018-02-03T06:24:14.701Z,12.70
2018-02-03T06:25:18.118Z,13.73
2018-02-03T06:26:21.745Z,13.40
2018-02-03T06:27:24.215Z,12.82
2018-02-03T06:28:26.695Z,13.73
2018-02-03T06:29:29.175Z,13.38
2018-02-03T06:30:31.642Z,13.15
2018-02-03T06:31:34.109Z,12.93
2018-02-03T06:32:36.673Z,13.65
2018-02-03T06:33:39.131Z,13.70
2018-02-03T06:34:42.372Z,14.20
2018-02-03T06:35:45.642Z,13.32
2018-02-03T06:36:48.118Z,13.65
2018-02-03T06:37:50.581Z,13.27
2018-02-03T06:38:53.793Z,14.30
2018-02-03T06:39:56.349Z,13.38
2018-02-03T06:40:59.033Z,14.10
2018-02-03T06:42:02.292Z,14.60
2018-02-03T06:43:04.980Z,14.10
2018-02-03T06:44:07.444Z,13.18
2018-02-03T06:45:10.005Z,13.45
2018-02-03T06:46:12.528Z,13.00
2018-02-03T06:47:15.031Z,15.80
2018-02-03T06:48:18.295Z,15.05
2018-02-03T06:49:20.790Z,14.50
2018-02-03T06:50:23.295Z,14.55
2018-02-03T06:51:25.777Z,16.90
2018-02-03T06:52:28.235Z,15.27
2018-02-03T06:53:31.166Z,15.48
2018-02-03T06:54:33.661Z,15.52
2018-02-03T06:55:36.137Z,16.35
2018-02-03T06:56:38.713Z,15.45
2018-02-03T06:57:41.946Z,15.98
2018-02-03T06:58:45.678Z,15.63
2018-02-03T06:59:48.138Z,14.35
2018-02-03T07:00:50.638Z,15.88
2018-02-03T07:01:53.905Z,15.40
2018-02-03T07:02:56.444Z,15.35
2018-02-03T07:03:58.911Z,15.57
2018-02-03T07:05:01.378Z,15.38
2018-02-03T07:06:03.870Z,15.15
2018-02-03T07:07:06.356Z,13.95
2018-02-03T07:08:08.886Z,14.82
2018-02-03T07:09:11.352Z,13.73
2018-02-03T07:10:14.333Z,14.38
2018-02-03T07:11:16.857Z,12.60
2018-02-03T07:12:19.354Z,13.60
2018-02-03T07:13:22.589Z,13.27
2018-02-03T07:14:25.862Z,12.65
2018-02-03T07:15:28.316Z,13.05
2018-02-03T07:16:30.781Z,12.30
2018-02-03T07:17:34.055Z,13.23
2018-02-03T07:18:36.518Z,11.20
2018-02-03T07:19:38.977Z,11.27
2018-02-03T07:20:42.226Z,12.27
2018-02-03T07:21:45.457Z,11.52
2018-02-03T07:22:48.677Z,11.55
2018-02-03T07:23:51.148Z,11.35
2018-02-03T07:24:53.621Z,10.65
2018-02-03T07:25:56.078Z,10.50
2018-02-03T07:26:59.365Z,9.70
2018-02-03T07:28:01.837Z,9.43
2018-02-03T07:29:05.093Z,9.65
2018-02-03T07:30:08.334Z,10.10
2018-02-03T07:31:11.583Z,8.88
2018-02-03T07:32:14.819Z,10.23
2018-02-03T07:33:18.091Z,10.70
2018-02-03T07:34:20.546Z,9.98
2018-02-03T07:35:23.113Z,10.50
2018-02-03T07:36:26.352Z,9.23
2018-02-03T07:37:29.610Z,9.70
2018-02-03T07:38:32.137Z,10.05
2018-02-03T07:39:34.608Z,9.90
2018-02-03T07:40:37.073Z,9.80
2018-02-03T07:41:40.325Z,10.15
2018-02-03T07:42:43.554Z,10.13
2018-02-03T07:43:46.896Z,10.00
2018-02-03T07:44:50.121Z,9.65
2018-02-03T07:45:52.598Z,9.70
2018-02-03T07:46:55.061Z,10.15
2018-02-03T07:47:57.526Z,10.27
2018-02-03T07:49:00.057Z,9.65
2018-02-03T07:50:02.523Z,9.18
2018-02-03T07:51:05.053Z,9.95
2018-02-03T07:52:07.514Z,9.45
2018-02-03T07:53:10.754Z,10.35
2018-02-03T07:54:14.004Z,9.68
2018-02-03T07:55:17.258Z,11.00
2018-02-03T07:56:19.745Z,9.30
2018-02-03T07:57:22.265Z,9.30
2018-02-03T07:58:24.692Z,10.35
2018-02-03T07:59:27.164Z,11.10
2018-02-03T08:00:29.682Z,10.63
2018-02-03T08:01:32.165Z,10.60
2018-02-03T08:02:34.636Z,10.85
2018-02-03T08:03:37.109Z,10.45
2018-02-03T08:04:39.577Z,11.20
2018-02-03T08:05:42.065Z,12.00
2018-02-03T08:06:44.661Z,11.40
2018-02-03T08:07:47.165Z,11.45
2018-02-03T08:08:49.690Z,11.52
2018-02-03T08:09:52.148Z,11.70
2018-02-03T08:10:54.605Z,11.38
2018-02-03T08:11:57.850Z,12.90
2018-02-03T08:13:00.351Z,11.07
2018-02-03T08:14:02.821Z,11.77
2018-02-03T08:15:06.069Z,12.07
2018-02-03T08:16:08.593Z,11.05
2018-02-03T08:17:11.054Z,11.70
2018-02-03T08:18:13.572Z,12.40
2018-02-03T08:19:16.059Z,11.85
2018-02-03T08:20:19.293Z,11.38
2018-02-03T08:21:22.610Z,13.05
2018-02-03T08:22:25.083Z,12.15
2018-02-03T08:23:27.558Z,11.95
2018-02-03T08:24:30.079Z,11.70
2018-02-03T08:25:32.545Z,12.05
2018-02-03T08:26:35.791Z,12.20
2018-02-03T08:27:39.045Z,10.90
2018-02-03T08:28:41.569Z,11.50
2018-02-03T08:29:44.090Z,12.20
2018-02-03T08:30:46.574Z,11.02
2018-02-03T08:31:49.044Z,11.30
2018-02-03T08:32:51.511Z,11.90
2018-02-03T08:33:53.999Z,11.98
2018-02-03T08:34:56.521Z,11.30
2018-02-03T08:35:58.997Z,11.20
2018-02-03T08:37:02.965Z,11.15
2018-02-03T08:38:05.441Z,10.68
2018-02-03T08:39:07.949Z,11.57
2018-02-03T08:40:10.620Z,12.48
2018-02-03T08:41:13.065Z,12.30
2018-02-03T08:42:15.552Z,12.05
2018-02-03T08:43:18.009Z,11.73
2018-02-03T08:44:20.489Z,11.75
2018-02-03T08:45:22.953Z,11.07
2018-02-03T08:46:25.447Z,11.88
2018-02-03T08:47:27.948Z,11.50
2018-02-03T08:48:31.172Z,9.90
2018-02-03T08:49:33.637Z,11.07
2018-02-03T08:50:37.308Z,10.80
2018-02-03T08:51:39.826Z,10.98
2018-02-03T08:52:42.365Z,10.43
2018-02-03T08:53:44.956Z,10.15
2018-02-03T08:54:47.424Z,10.52
2018-02-03T08:55:49.881Z,9.55
2018-02-03T08:56:53.654Z,10.10
2018-02-03T08:57:56.147Z,10.07
2018-02-03T08:58:58.609Z,10.82
2018-02-03T09:00:01.092Z,9.25
2018-02-03T09:01:03.579Z,9.95
2018-02-03T09:02:06.159Z,9.13
2018-02-03T09:03:09.396Z,9.68
2018-02-03T09:04:12.627Z,9.70
2018-02-03T09:05:15.108Z,9.25
2018-02-03T09:06:17.598Z,9.05
2018-02-03T09:07:20.824Z,9.35
2018-02-03T09:08:23.278Z,8.95
2018-02-03T09:09:26.502Z,8.45
2018-02-03T09:10:29.725Z,7.55
2018-02-03T09:11:32.220Z,7.45
2018-02-03T09:12:34.681Z,6.07
2018-02-03T09:13:37.141Z,6.07
2018-02-03T09:14:39.628Z,6.57
2018-02-03T09:15:42.138Z,5.65
2018-02-03T09:16:44.616Z,5.90
2018-02-03T09:17:47.181Z,5.00
2018-02-03T09:18:49.645Z,5.68
2018-02-03T09:19:52.902Z,4.95
2018-02-03T09:20:56.133Z,5.10
2018-02-03T09:21:59.369Z,4.80
2018-02-03T09:23:02.605Z,4.80
2018-02-03T09:24:05.093Z,4.70
2018-02-03T09:25:07.579Z,5.20
2018-02-03T09:26:10.810Z,5.20
2018-02-03T09:27:14.028Z,4.80
2018-02-03T09:28:16.519Z,5.60
2018-02-03T09:29:18.981Z,5.45
2018-02-03T09:30:21.541Z,5.40
2018-02-03T09:31:24.040Z,5.95
2018-02-03T09:32:26.503Z,6.18
2018-02-03T09:33:28.998Z,5.70
2018-02-03T09:34:32.222Z,5.97
2018-02-03T09:35:34.682Z,6.05
2018-02-03T09:36:37.256Z,5.75
2018-02-03T09:37:40.817Z,6.10
2018-02-03T09:38:43.265Z,6.62
2018-02-03T09:39:46.498Z,6.85
2018-02-03T09:40:49.769Z,6.57
2018-02-03T09:41:52.222Z,7.28
2018-02-03T09:42:54.766Z,6.55
2018-02-03T09:43:57.233Z,5.80
2018-02-03T09:45:00.506Z,7.40
2018-02-03T09:46:03.073Z,7.28
2018-02-03T09:47:05.521Z,6.70
2018-02-03T09:48:08.879Z,5.72
2018-02-03T09:49:12.101Z,6.45
2018-02-03T09:50:14.575Z,6.80
2018-02-03T09:51:17.030Z,6.35
2018-02-03T09:52:19.497Z,6.62
2018-02-03T09:53:22.009Z,6.75
2018-02-03T09:54:25.241Z,6.43
2018-02-03T09:55:27.701Z,6.20
2018-02-03T09:56:30.173Z,5.20
2018-02-03T09:57:34.157Z,5.90
2018-02-03T09:58:37.440Z,5.68
2018-02-03T09:59:39.925Z,6.10
2018-02-03T10:00:43.241Z,5.82
2018-02-03T10:01:45.754Z,5.95
2018-02-03T10:02:48.340Z,5.90
2018-02-03T10:03:51.673Z,6.65
2018-02-03T10:04:54.903Z,5.95
2018-02-03T10:05:57.403Z,5.97
2018-02-03T10:06:59.862Z,5.75
2018-02-03T10:08:03.084Z,5.68
2018-02-03T10:09:05.544Z,6.28
2018-02-03T10:10:08.021Z,6.97
2018-02-03T10:11:12.028Z,6.40
2018-02-03T10:12:14.486Z,6.50
2018-02-03T10:13:16.976Z,7.15
2018-02-03T10:14:20.197Z,6.50
2018-02-03T10:15:23.460Z,7.20
2018-02-03T10:16:26.708Z,6.95
2018-02-03T10:17:29.190Z,7.20
2018-02-03T10:18:31.678Z,6.55
2018-02-03T10:19:34.135Z,6.45
2018-02-03T10:20:36.703Z,6.55
2018-02-03T10:21:39.145Z,6.53
2018-02-03T10:22:41.646Z,6.43
2018-02-03T10:23:44.931Z,5.65
2018-02-03T10:24:48.100Z,6.47
2018-02-03T10:25:51.346Z,6.30
2018-02-03T10:26:53.812Z,8.27
2018-02-03T10:27:56.336Z,7.10
2018-02-03T10:28:58.870Z,6.20
2018-02-03T10:30:01.351Z,9.57
2018-02-03T10:31:03.849Z,6.18
2018-02-03T10:32:06.381Z,6.32
2018-02-03T10:33:08.823Z,5.85
2018-02-03T10:34:11.343Z,5.32
2018-02-03T10:35:14.625Z,5.47
2018-02-03T10:36:17.436Z,5.55
2018-02-03T10:37:20.317Z,5.50
2018-02-03T10:38:22.841Z,5.35
2018-02-03T10:39:25.348Z,5.90
2018-02-03T10:40:27.799Z,6.25
2018-02-03T10:41:31.208Z,5.60
2018-02-03T10:42:34.429Z,6.20
2018-02-03T10:43:37.226Z,5.72
2018-02-03T10:44:39.700Z,5.65
2018-02-03T10:45:42.960Z,5.57
2018-02-03T10:46:45.461Z,6.00
2018-02-03T10:47:48.746Z,5.50
2018-02-03T10:48:51.378Z,5.97
2018-02-03T10:49:54.074Z,5.50
2018-02-03T10:50:57.425Z,5.57
2018-02-03T10:51:59.930Z,4.95
2018-02-03T10:53:03.172Z,5.60
2018-02-03T10:54:05.670Z,5.87
2018-02-03T10:55:08.122Z,5.37
2018-02-03T10:56:11.417Z,6.05
2018-02-03T10:57:13.886Z,5.85
2018-02-03T10:58:17.173Z,5.93
2018-02-03T10:59:19.647Z,5.62
2018-02-03T11:00:22.115Z,6.18
2018-02-03T11:01:24.594Z,6.75
2018-02-03T11:02:27.093Z,6.20
2018-02-03T11:03:29.603Z,6.10
2018-02-03T11:04:32.066Z,8.93
2018-02-03T11:05:35.303Z,7.10
2018-02-03T11:06:37.873Z,8.15
2018-02-03T11:07:40.414Z,6.65
2018-02-03T11:08:42.882Z,7.53
2018-02-03T11:09:45.338Z,6.78
2018-02-03T11:10:48.573Z,7.20
2018-02-03T11:11:51.830Z,7.43
2018-02-03T11:12:55.076Z,6.68
2018-02-03T11:13:57.534Z,8.27
2018-02-03T11:15:00.063Z,7.70
2018-02-03T11:16:02.528Z,7.15
2018-02-03T11:17:05.018Z,7.62
2018-02-03T11:18:07.479Z,6.78
2018-02-03T11:19:10.757Z,7.43
2018-02-03T11:20:13.291Z,7.35
2018-02-03T11:21:15.794Z,8.15
2018-02-03T11:22:18.283Z,8.40
2018-02-03T11:23:20.758Z,8.68
2018-02-03T11:24:23.258Z,9.25
2018-02-03T11:25:26.581Z,8.50
2018-02-03T11:26:29.914Z,8.07
2018-02-03T11:27:32.485Z,8.20
2018-02-03T11:28:35.553Z,8.57
2018-02-03T11:29:38.005Z,8.13
2018-02-03T11:30:40.501Z,7.97
2018-02-03T11:31:42.966Z,8.40
2018-02-03T11:32:46.198Z,8.75
2018-02-03T11:33:48.687Z,8.00
2018-02-03T11:34:51.157Z,7.90
2018-02-03T11:35:53.669Z,8.20
2018-02-03T11:36:56.143Z,8.15
2018-02-03T11:37:58.620Z,8.32
2018-02-03T11:39:01.099Z,8.95
2018-02-03T11:40:03.573Z,9.05
2018-02-03T11:41:07.566Z,9.05
2018-02-03T11:42:10.793Z,8.80
2018-02-03T11:43:14.037Z,8.63
2018-02-03T11:44:17.267Z,9.50
2018-02-03T11:45:21.420Z,9.10
2018-02-03T11:46:24.667Z,8.88
2018-02-03T11:47:27.131Z,8.95
2018-02-03T11:48:29.596Z,9.88
2018-02-03T11:49:32.193Z,8.50
2018-02-03T11:50:34.891Z,8.40
2018-02-03T11:51:37.441Z,7.87
2018-02-03T11:52:40.693Z,7.97
2018-02-03T11:53:43.769Z,7.90
2018-02-03T11:54:46.237Z,7.55
2018-02-03T11:55:49.517Z,7.25
2018-02-03T11:56:51.993Z,8.00
2018-02-03T11:57:55.266Z,8.18
2018-02-03T11:58:57.837Z,7.50
2018-02-03T12:00:00.305Z,7.75
2018-02-03T12:01:02.803Z,7.37
2018-02-03T12:02:05.363Z,8.05
2018-02-03T12:03:07.838Z,8.00
2018-02-03T12:04:10.299Z,8.20
2018-02-03T12:05:13.565Z,9.68
2018-02-03T12:06:16.065Z,10.45
2018-02-03T12:07:19.393Z,10.55
2018-02-03T12:08:22.674Z,11.05
2018-02-03T12:09:25.141Z,10.82
2018-02-03T12:10:27.604Z,10.82
2018-02-03T12:11:30.953Z,11.75
2018-02-03T12:12:34.201Z,11.57
2018-02-03T12:13:36.654Z,11.48
2018-02-03T12:14:39.119Z,11.32
2018-02-03T12:15:41.581Z,11.65
2018-02-03T12:16:45.371Z,11.38
2018-02-03T12:17:47.874Z,10.30
2018-02-03T12:18:50.387Z,10.48
2018-02-03T12:19:53.689Z,9.70
2018-02-03T12:20:56.267Z,10.27
2018-02-03T12:21:58.793Z,10.43
2018-02-03T12:23:01.288Z,10.52
2018-02-03T12:24:04.616Z,10.57
2018-02-03T12:25:07.142Z,9.93
2018-02-03T12:26:09.623Z,9.77
2018-02-03T12:27:12.127Z,9.77
2018-02-03T12:28:14.621Z,10.30
2018-02-03T12:29:17.157Z,10.13
2018-02-03T12:30:19.733Z,9.90
2018-02-03T12:31:22.203Z,8.48
2018-02-03T12:32:25.439Z,9.50
2018-02-03T12:33:27.925Z,9.18
2018-02-03T12:34:30.398Z,9.30
2018-02-03T12:35:33.621Z,9.85
2018-02-03T12:36:37.618Z,9.00
2018-02-03T12:37:40.940Z,10.07
2018-02-03T12:38:43.533Z,9.60
2018-02-03T12:39:46.079Z,9.00
2018-02-03T12:40:48.574Z,10.40
2018-02-03T12:41:51.110Z,10.45
2018-02-03T12:42:53.649Z,10.20
2018-02-03T12:43:56.121Z,10.40
2018-02-03T12:44:58.622Z,10.48
2018-02-03T12:46:01.845Z,10.30
2018-02-03T12:47:05.102Z,10.57
2018-02-03T12:48:08.397Z,10.43
2018-02-03T12:49:11.636Z,10.80
2018-02-03T12:50:14.108Z,10.27
2018-02-03T12:51:16.715Z,9.90
2018-02-03T12:52:19.263Z,9.50
2018-02-03T12:53:21.747Z,9.13
2018-02-03T12:54:24.371Z,10.23
2018-02-03T12:55:27.245Z,9.60
2018-02-03T12:56:29.892Z,10.80
2018-02-03T12:57:33.309Z,10.05
2018-02-03T12:58:36.480Z,10.40
2018-02-03T12:59:39.753Z,10.00
2018-02-03T13:00:42.434Z,9.60
2018-02-03T13:01:44.953Z,11.15
2018-02-03T13:02:49.623Z,10.63
2018-02-03T13:03:52.115Z,10.23
2018-02-03T13:04:54.628Z,10.50
2018-02-03T13:05:57.120Z,10.07
2018-02-03T13:07:00.805Z,10.85
2018-02-03T13:08:03.277Z,11.88
2018-02-03T13:09:05.786Z,11.70
2018-02-03T13:10:08.309Z,11.50
2018-02-03T13:11:10.794Z,11.52
2018-02-03T13:12:13.286Z,11.63
2018-02-03T13:13:15.766Z,12.95
2018-02-03T13:14:18.265Z,11.90
2018-02-03T13:15:21.525Z,12.80
2018-02-03T13:16:23.993Z,12.40
2018-02-03T13:17:26.463Z,11.63
2018-02-03T13:18:28.947Z,11.60
2018-02-03T13:19:31.434Z,11.80
2018-02-03T13:20:33.938Z,13.13
2018-02-03T13:21:36.438Z,12.98
2018-02-03T13:22:39.082Z,11.45
2018-02-03T13:23:41.664Z,11.82
2018-02-03T13:24:44.207Z,13.30
2018-02-03T13:25:46.703Z,12.07
2018-02-03T13:26:49.199Z,10.85
2018-02-03T13:27:51.736Z,11.85
2018-02-03T13:28:54.247Z,11.82
2018-02-03T13:29:56.786Z,12.00
2018-02-03T13:32:09.757Z,13.25
2018-02-03T13:33:12.250Z,11.73
2018-02-03T13:34:14.761Z,10.90
2018-02-03T13:35:17.282Z,10.90
2018-02-03T13:36:19.790Z,11.27
2018-02-03T13:37:23.049Z,10.65
2018-02-03T13:38:25.541Z,10.23